XNO6598 EGLL-KJFK
Flight info
| Callsign | XNO6598 |
|---|---|
| Flight time | N/A |
| Altitude | 34000 |
| Route | CPT L9 BIBPE DCT BUCGO DCT FELCA DCT NICXI DCT BAKUR DCT NEBIN/M084F340 DCT 5330N02000W 5230N03000W 51N040W 4930N05000W DCT IBERG/N0485F340 N364A TUSKY DCT PLYMM PARCH4 |
| Aircraft | B77W/H-SDE1E2E3FGHIJ2J3J4J5M1RWXY/LB1D1 |
Departure
| Time | 2026-05-07 07:22 |
|---|---|
| Airport | London Heathrow Airport (EGLL) |
Arrival
| Time | N/A |
|---|---|
| Airport | John F. Kennedy International Airport (KJFK) |
| Time | Latitude | Longitude | Altitude | Speed | Heading |
|---|---|---|---|---|---|
| 2026-05-07 07:00 | 51.46848 | -0.48233 | 94 ft | 0 kts | 89° |
| 2026-05-07 07:15 | 51.46849 | -0.48243 | 93 ft | 4 kts | 90° |
| 2026-05-07 07:15 | 51.46849 | -0.48286 | 91 ft | 4 kts | 90° |
| 2026-05-07 07:16 | 51.46849 | -0.48324 | 91 ft | 4 kts | 106° |
| 2026-05-07 07:16 | 51.46862 | -0.48351 | 92 ft | 4 kts | 166° |
| 2026-05-07 07:16 | 51.46889 | -0.48356 | 92 ft | 4 kts | 180° |
| 2026-05-07 07:16 | 51.46898 | -0.48356 | 92 ft | 0 kts | 179° |
| 2026-05-07 07:18 | 51.46896 | -0.48356 | 92 ft | 1 kts | 179° |
| 2026-05-07 07:18 | 51.46873 | -0.48355 | 92 ft | 5 kts | 179° |
| 2026-05-07 07:18 | 51.46828 | -0.48355 | 91 ft | 8 kts | 179° |
| 2026-05-07 07:19 | 51.46766 | -0.48363 | 91 ft | 10 kts | 203° |
| 2026-05-07 07:19 | 51.46728 | -0.48442 | 95 ft | 8 kts | 221° |
| 2026-05-07 07:19 | 51.46688 | -0.48464 | 95 ft | 6 kts | 184° |
| 2026-05-07 07:19 | 51.46638 | -0.48467 | 91 ft | 6 kts | 181° |
| 2026-05-07 07:20 | 51.46635 | -0.48467 | 91 ft | 0 kts | 181° |
| 2026-05-07 07:20 | 51.46624 | -0.48467 | 91 ft | 6 kts | 181° |
| 2026-05-07 07:20 | 51.46548 | -0.48467 | 91 ft | 11 kts | 180° |
| 2026-05-07 07:20 | 51.46488 | -0.48436 | 95 ft | 8 kts | 128° |
| 2026-05-07 07:21 | 51.46479 | -0.48330 | 93 ft | 12 kts | 90° |
| 2026-05-07 07:21 | 51.46480 | -0.48017 | 92 ft | 64 kts | 90° |
| 2026-05-07 07:21 | 51.46485 | -0.46786 | 97 ft | 154 kts | 90° |
| 2026-05-07 07:21 | 51.46484 | -0.44672 | 260 ft | 214 kts | 90° |
| 2026-05-07 07:22 | 51.46489 | -0.42057 | 786 ft | 253 kts | 90° |
| 2026-05-07 07:22 | 51.46205 | -0.39301 | 2116 ft | 246 kts | 117° |
| 2026-05-07 07:22 | 51.45078 | -0.37225 | 2959 ft | 253 kts | 152° |
| 2026-05-07 07:22 | 51.43370 | -0.36588 | 3698 ft | 257 kts | 186° |
| 2026-05-07 07:23 | 51.41672 | -0.37451 | 4500 ft | 259 kts | 213° |
| 2026-05-07 07:23 | 51.40365 | -0.39397 | 5325 ft | 259 kts | 238° |
| 2026-05-07 07:23 | 51.39732 | -0.42087 | 5904 ft | 262 kts | 266° |
| 2026-05-07 07:23 | 51.39910 | -0.44955 | 5985 ft | 266 kts | 283° |
| 2026-05-07 07:24 | 51.40343 | -0.47843 | 6006 ft | 267 kts | 283° |
| 2026-05-07 07:24 | 51.40758 | -0.50748 | 6131 ft | 268 kts | 282° |
| 2026-05-07 07:24 | 51.41150 | -0.53661 | 6923 ft | 268 kts | 282° |
| 2026-05-07 07:24 | 51.41527 | -0.56598 | 7709 ft | 271 kts | 281° |
| 2026-05-07 07:25 | 51.42263 | -0.62615 | 9217 ft | 279 kts | 281° |
| 2026-05-07 07:25 | 51.42627 | -0.65686 | 9961 ft | 283 kts | 281° |
| 2026-05-07 07:25 | 51.42993 | -0.68827 | 10518 ft | 294 kts | 281° |
| 2026-05-07 07:26 | 51.43382 | -0.72187 | 10711 ft | 318 kts | 281° |
| 2026-05-07 07:26 | 51.43802 | -0.75803 | 10914 ft | 342 kts | 281° |
| 2026-05-07 07:26 | 51.44272 | -0.79663 | 11208 ft | 362 kts | 281° |
| 2026-05-07 07:26 | 51.44765 | -0.83678 | 11831 ft | 371 kts | 281° |
| 2026-05-07 07:27 | 51.45265 | -0.87764 | 12637 ft | 376 kts | 281° |
| 2026-05-07 07:27 | 51.45754 | -0.91923 | 13411 ft | 382 kts | 280° |
| 2026-05-07 07:27 | 51.46233 | -0.96124 | 14222 ft | 386 kts | 279° |
| 2026-05-07 07:27 | 51.46715 | -1.00379 | 14944 ft | 390 kts | 279° |
| 2026-05-07 07:28 | 51.47208 | -1.04685 | 15702 ft | 394 kts | 280° |
| 2026-05-07 07:28 | 51.47710 | -1.09018 | 16470 ft | 397 kts | 280° |
| 2026-05-07 07:28 | 51.48215 | -1.13392 | 17233 ft | 401 kts | 280° |
| 2026-05-07 07:28 | 51.48725 | -1.17814 | 17969 ft | 403 kts | 281° |
| 2026-05-07 07:29 | 51.49632 | -1.22073 | 18444 ft | 410 kts | 299° |
| 2026-05-07 07:29 | 51.51445 | -1.25641 | 19000 ft | 414 kts | 317° |
| 2026-05-07 07:29 | 51.53593 | -1.28671 | 19525 ft | 419 kts | 317° |
| 2026-05-07 07:29 | 51.55751 | -1.31843 | 20133 ft | 423 kts | 316° |
| 2026-05-07 07:30 | 51.57903 | -1.35094 | 20780 ft | 426 kts | 315° |
| 2026-05-07 07:30 | 51.59933 | -1.38580 | 21381 ft | 429 kts | 308° |
| 2026-05-07 07:30 | 51.61719 | -1.42442 | 21976 ft | 432 kts | 303° |
| 2026-05-07 07:30 | 51.63254 | -1.46633 | 22535 ft | 437 kts | 297° |
| 2026-05-07 07:31 | 51.64652 | -1.51000 | 23039 ft | 442 kts | 296° |
| 2026-05-07 07:31 | 51.66072 | -1.55419 | 23582 ft | 446 kts | 297° |
| 2026-05-07 07:31 | 51.67524 | -1.59859 | 24063 ft | 450 kts | 297° |
| 2026-05-07 07:31 | 51.68943 | -1.64357 | 24554 ft | 452 kts | 294° |
| 2026-05-07 07:32 | 51.70046 | -1.69115 | 25009 ft | 455 kts | 286° |
| 2026-05-07 07:32 | 51.70823 | -1.74081 | 25442 ft | 459 kts | 280° |
| 2026-05-07 07:32 | 51.71245 | -1.79195 | 25895 ft | 461 kts | 275° |
| 2026-05-07 07:32 | 51.71563 | -1.84372 | 26279 ft | 466 kts | 276° |
| 2026-05-07 07:33 | 51.71908 | -1.89597 | 26701 ft | 470 kts | 276° |
| 2026-05-07 07:33 | 51.72275 | -1.94850 | 27159 ft | 472 kts | 276° |
| 2026-05-07 07:33 | 51.72652 | -2.00136 | 27560 ft | 476 kts | 276° |
| 2026-05-07 07:33 | 51.73031 | -2.05457 | 27984 ft | 478 kts | 276° |
| 2026-05-07 07:34 | 51.73404 | -2.10734 | 28355 ft | 481 kts | 276° |
| 2026-05-07 07:34 | 51.73780 | -2.16117 | 28708 ft | 484 kts | 276° |
| 2026-05-07 07:34 | 51.74155 | -2.21532 | 29064 ft | 487 kts | 276° |
| 2026-05-07 07:34 | 51.74533 | -2.27048 | 29401 ft | 489 kts | 276° |
| 2026-05-07 07:35 | 51.74900 | -2.32452 | 29736 ft | 492 kts | 276° |
| 2026-05-07 07:35 | 51.75271 | -2.37954 | 30062 ft | 493 kts | 276° |
| 2026-05-07 07:35 | 51.75640 | -2.43457 | 30423 ft | 493 kts | 276° |
| 2026-05-07 07:35 | 51.76006 | -2.48949 | 30806 ft | 492 kts | 276° |
| 2026-05-07 07:36 | 51.76371 | -2.54446 | 31186 ft | 491 kts | 276° |
| 2026-05-07 07:36 | 51.76731 | -2.59927 | 31541 ft | 491 kts | 276° |
| 2026-05-07 07:36 | 51.77089 | -2.65412 | 31876 ft | 490 kts | 276° |
| 2026-05-07 07:36 | 51.77442 | -2.70885 | 32216 ft | 490 kts | 276° |
| 2026-05-07 07:37 | 51.77793 | -2.76346 | 32527 ft | 490 kts | 276° |
| 2026-05-07 07:37 | 51.78143 | -2.81848 | 32662 ft | 494 kts | 276° |
| 2026-05-07 07:37 | 51.78494 | -2.87383 | 32897 ft | 495 kts | 276° |
| 2026-05-07 07:37 | 51.78841 | -2.92912 | 33252 ft | 494 kts | 276° |
| 2026-05-07 07:38 | 51.79185 | -2.98425 | 33610 ft | 493 kts | 276° |
| 2026-05-07 07:38 | 51.79527 | -3.03942 | 33896 ft | 493 kts | 276° |
| 2026-05-07 07:38 | 51.79866 | -3.09465 | 34023 ft | 496 kts | 276° |
| 2026-05-07 07:39 | 51.80537 | -3.20510 | 34064 ft | 497 kts | 276° |
| 2026-05-07 07:39 | 51.81200 | -3.31620 | 34058 ft | 491 kts | 276° |
| 2026-05-07 07:40 | 51.81843 | -3.42535 | 34053 ft | 490 kts | 275° |
| 2026-05-07 07:40 | 51.82497 | -3.53505 | 34045 ft | 490 kts | 277° |
| 2026-05-07 07:41 | 51.83778 | -3.64345 | 34043 ft | 491 kts | 282° |
| 2026-05-07 07:41 | 51.85233 | -3.75164 | 34038 ft | 492 kts | 282° |
| 2026-05-07 07:42 | 51.86656 | -3.86001 | 34038 ft | 493 kts | 282° |
| 2026-05-07 07:42 | 51.88047 | -3.96880 | 34024 ft | 494 kts | 282° |
| 2026-05-07 07:43 | 51.89415 | -4.07708 | 34030 ft | 494 kts | 282° |
| 2026-05-07 07:43 | 51.90782 | -4.18617 | 34023 ft | 494 kts | 282° |
| 2026-05-07 07:44 | 51.92142 | -4.29538 | 34025 ft | 494 kts | 282° |
| 2026-05-07 07:44 | 51.93488 | -4.40436 | 34014 ft | 493 kts | 281° |
| 2026-05-07 07:45 | 51.94837 | -4.51314 | 34014 ft | 492 kts | 283° |
| 2026-05-07 07:45 | 51.97045 | -4.61765 | 34025 ft | 490 kts | 294° |
| 2026-05-07 07:46 | 51.99769 | -4.71949 | 34018 ft | 492 kts | 294° |
| 2026-05-07 07:46 | 52.02471 | -4.82183 | 34021 ft | 494 kts | 293° |
| 2026-05-07 07:47 | 52.05137 | -4.92496 | 34011 ft | 496 kts | 293° |
| 2026-05-07 07:47 | 52.07771 | -5.02789 | 34010 ft | 497 kts | 293° |
| 2026-05-07 07:48 | 52.10418 | -5.13177 | 34001 ft | 497 kts | 293° |
| 2026-05-07 07:48 | 52.13059 | -5.23580 | 34014 ft | 498 kts | 292° |
| 2026-05-07 07:49 | 52.15694 | -5.34005 | 34009 ft | 497 kts | 292° |
| 2026-05-07 07:49 | 52.18317 | -5.44429 | 34002 ft | 497 kts | 292° |
| 2026-05-07 07:50 | 52.20931 | -5.54872 | 34001 ft | 497 kts | 292° |
| 2026-05-07 07:50 | 52.23534 | -5.65311 | 34002 ft | 497 kts | 292° |
| 2026-05-07 07:51 | 52.25776 | -5.75977 | 33982 ft | 497 kts | 286° |
| 2026-05-07 07:51 | 52.27647 | -5.86827 | 34007 ft | 497 kts | 285° |
| 2026-05-07 07:52 | 52.29495 | -5.97700 | 34001 ft | 497 kts | 285° |
| 2026-05-07 07:52 | 52.31375 | -6.08567 | 33984 ft | 497 kts | 285° |
| 2026-05-07 07:53 | 52.33258 | -6.19364 | 33995 ft | 497 kts | 285° |
| 2026-05-07 07:53 | 52.35151 | -6.30257 | 33999 ft | 497 kts | 285° |
| 2026-05-07 07:54 | 52.37030 | -6.41146 | 33997 ft | 497 kts | 285° |
| 2026-05-07 07:54 | 52.38582 | -6.50198 | 33989 ft | 497 kts | 285° |
| 2026-05-07 07:55 | 52.40439 | -6.61099 | 33990 ft | 497 kts | 285° |
| 2026-05-07 07:55 | 52.42288 | -6.72018 | 33991 ft | 496 kts | 285° |
| 2026-05-07 07:56 | 52.44121 | -6.82911 | 33969 ft | 496 kts | 285° |
| 2026-05-07 07:56 | 52.45945 | -6.93817 | 33985 ft | 496 kts | 284° |
| 2026-05-07 07:57 | 52.47759 | -7.04736 | 33972 ft | 496 kts | 284° |
| 2026-05-07 07:57 | 52.49564 | -7.15664 | 33985 ft | 496 kts | 284° |
| 2026-05-07 07:58 | 52.51347 | -7.26532 | 33979 ft | 496 kts | 284° |
| 2026-05-07 07:58 | 52.53132 | -7.37484 | 33981 ft | 496 kts | 284° |
| 2026-05-07 07:59 | 52.54907 | -7.48439 | 33961 ft | 495 kts | 284° |
| 2026-05-07 07:59 | 52.56667 | -7.59381 | 33966 ft | 494 kts | 283° |
| 2026-05-07 08:00 | 52.58411 | -7.70295 | 33961 ft | 493 kts | 283° |
| 2026-05-07 08:00 | 52.60142 | -7.81194 | 33965 ft | 492 kts | 283° |
| 2026-05-07 08:01 | 52.61861 | -7.92089 | 33967 ft | 491 kts | 283° |
| 2026-05-07 08:01 | 52.63569 | -8.02992 | 33967 ft | 491 kts | 283° |
| 2026-05-07 08:02 | 52.65257 | -8.13829 | 33984 ft | 492 kts | 283° |
| 2026-05-07 08:02 | 52.66945 | -8.24745 | 33968 ft | 492 kts | 283° |
| 2026-05-07 08:03 | 52.68625 | -8.35683 | 33967 ft | 492 kts | 283° |
| 2026-05-07 08:03 | 52.70299 | -8.46656 | 33968 ft | 493 kts | 283° |
| 2026-05-07 08:04 | 52.71958 | -8.57605 | 33971 ft | 492 kts | 282° |
| 2026-05-07 08:04 | 52.73605 | -8.68545 | 33965 ft | 490 kts | 282° |
| 2026-05-07 08:05 | 52.75234 | -8.79447 | 33966 ft | 488 kts | 282° |
| 2026-05-07 08:05 | 52.76847 | -8.90312 | 33967 ft | 487 kts | 282° |
| 2026-05-07 08:06 | 52.78440 | -9.01118 | 33967 ft | 486 kts | 282° |
| 2026-05-07 08:06 | 52.80030 | -9.11979 | 33967 ft | 486 kts | 282° |
| 2026-05-07 08:07 | 52.81612 | -9.22865 | 33970 ft | 487 kts | 281° |
| 2026-05-07 08:07 | 52.83188 | -9.33782 | 33961 ft | 488 kts | 281° |
| 2026-05-07 08:08 | 52.84757 | -9.44730 | 33957 ft | 489 kts | 281° |
| 2026-05-07 08:08 | 52.86318 | -9.55694 | 33955 ft | 489 kts | 281° |
| 2026-05-07 08:09 | 52.87857 | -9.66584 | 33962 ft | 488 kts | 281° |
| 2026-05-07 08:09 | 52.89390 | -9.77507 | 33949 ft | 486 kts | 281° |
| 2026-05-07 08:10 | 52.90905 | -9.88389 | 33941 ft | 484 kts | 280° |
| 2026-05-07 08:10 | 52.92404 | -9.99233 | 33938 ft | 482 kts | 280° |
| 2026-05-07 08:11 | 52.93891 | -10.10070 | 33947 ft | 481 kts | 280° |
| 2026-05-07 08:11 | 52.95366 | -10.20896 | 33947 ft | 481 kts | 280° |
| 2026-05-07 08:12 | 52.96832 | -10.31735 | 33939 ft | 482 kts | 280° |
| 2026-05-07 08:12 | 52.98292 | -10.42616 | 33940 ft | 483 kts | 280° |
| 2026-05-07 08:13 | 52.99734 | -10.53438 | 33938 ft | 483 kts | 280° |
| 2026-05-07 08:13 | 53.01177 | -10.64348 | 33940 ft | 484 kts | 279° |
| 2026-05-07 08:14 | 53.02611 | -10.75274 | 33937 ft | 484 kts | 279° |
| 2026-05-07 08:14 | 53.04038 | -10.86228 | 33930 ft | 484 kts | 279° |
| 2026-05-07 08:15 | 53.05453 | -10.97179 | 33936 ft | 484 kts | 279° |
| 2026-05-07 08:15 | 53.06858 | -11.08133 | 33934 ft | 484 kts | 279° |
| 2026-05-07 08:16 | 53.08251 | -11.19086 | 33932 ft | 484 kts | 279° |
| 2026-05-07 08:16 | 53.09626 | -11.29977 | 33941 ft | 484 kts | 279° |
| 2026-05-07 08:17 | 53.10998 | -11.40928 | 33921 ft | 483 kts | 279° |
| 2026-05-07 08:17 | 53.12357 | -11.51867 | 33927 ft | 481 kts | 279° |
| 2026-05-07 08:18 | 53.13701 | -11.62778 | 33929 ft | 480 kts | 278° |
| 2026-05-07 08:18 | 53.15035 | -11.73688 | 33920 ft | 480 kts | 278° |
| 2026-05-07 08:19 | 53.16356 | -11.84576 | 33935 ft | 479 kts | 278° |
| 2026-05-07 08:19 | 53.17664 | -11.95443 | 33917 ft | 476 kts | 278° |
| 2026-05-07 08:20 | 53.18952 | -12.06244 | 33915 ft | 473 kts | 277° |
| 2026-05-07 08:20 | 53.20223 | -12.16982 | 33917 ft | 471 kts | 277° |
| 2026-05-07 08:21 | 53.21481 | -12.27708 | 33919 ft | 471 kts | 277° |
| 2026-05-07 08:21 | 53.22721 | -12.38366 | 33926 ft | 471 kts | 277° |
| 2026-05-07 08:22 | 53.23961 | -12.49108 | 33912 ft | 471 kts | 277° |
| 2026-05-07 08:22 | 53.25190 | -12.59848 | 33915 ft | 470 kts | 277° |
| 2026-05-07 08:23 | 53.26408 | -12.70574 | 33915 ft | 470 kts | 277° |
| 2026-05-07 08:23 | 53.27616 | -12.81309 | 33909 ft | 470 kts | 277° |
| 2026-05-07 08:24 | 53.28815 | -12.92052 | 33927 ft | 470 kts | 277° |
| 2026-05-07 08:24 | 53.30002 | -13.02771 | 33920 ft | 468 kts | 276° |
| 2026-05-07 08:25 | 53.31171 | -13.13430 | 33909 ft | 464 kts | 276° |
| 2026-05-07 08:25 | 53.32316 | -13.23958 | 33906 ft | 461 kts | 276° |
| 2026-05-07 08:26 | 53.34014 | -13.39752 | 33910 ft | 459 kts | 276° |
| 2026-05-07 08:26 | 53.35133 | -13.50277 | 33930 ft | 459 kts | 276° |
| 2026-05-07 08:27 | 53.36243 | -13.60817 | 33913 ft | 459 kts | 275° |
| 2026-05-07 08:27 | 53.37344 | -13.71348 | 33915 ft | 459 kts | 275° |
| 2026-05-07 08:28 | 53.38436 | -13.81888 | 33915 ft | 459 kts | 275° |
| 2026-05-07 08:28 | 53.39518 | -13.92434 | 33918 ft | 459 kts | 275° |
| 2026-05-07 08:29 | 53.40591 | -14.02978 | 33924 ft | 459 kts | 275° |
| 2026-05-07 08:29 | 53.41648 | -14.13470 | 33935 ft | 458 kts | 275° |
| 2026-05-07 08:30 | 53.42701 | -14.23999 | 33915 ft | 456 kts | 275° |
| 2026-05-07 08:30 | 53.43737 | -14.34470 | 33917 ft | 454 kts | 275° |
| 2026-05-07 08:31 | 53.44759 | -14.44899 | 33915 ft | 452 kts | 275° |
| 2026-05-07 08:31 | 53.45770 | -14.55317 | 33920 ft | 452 kts | 275° |
| 2026-05-07 08:32 | 53.46770 | -14.65728 | 33928 ft | 452 kts | 275° |
| 2026-05-07 08:32 | 53.47756 | -14.76070 | 33926 ft | 452 kts | 275° |
| 2026-05-07 08:33 | 53.48740 | -14.86493 | 33932 ft | 452 kts | 275° |
| 2026-05-07 08:33 | 53.49717 | -14.96931 | 33930 ft | 452 kts | 275° |
| 2026-05-07 08:34 | 53.50213 | -15.07391 | 33927 ft | 448 kts | 268° |
| 2026-05-07 08:34 | 53.50385 | -15.17886 | 33943 ft | 449 kts | 268° |
| 2026-05-07 08:35 | 53.50561 | -15.28384 | 33938 ft | 449 kts | 268° |
| 2026-05-07 08:35 | 53.50743 | -15.38857 | 33954 ft | 448 kts | 268° |
| 2026-05-07 08:36 | 53.50922 | -15.49239 | 33941 ft | 447 kts | 268° |
| 2026-05-07 08:36 | 53.51094 | -15.59657 | 33936 ft | 445 kts | 268° |
| 2026-05-07 08:37 | 53.51255 | -15.70047 | 33944 ft | 444 kts | 268° |
| 2026-05-07 08:37 | 53.51405 | -15.80403 | 33940 ft | 443 kts | 268° |
| 2026-05-07 08:38 | 53.51547 | -15.90753 | 33933 ft | 443 kts | 268° |
| 2026-05-07 08:38 | 53.51680 | -16.01100 | 33941 ft | 443 kts | 268° |
| 2026-05-07 08:39 | 53.51804 | -16.11464 | 33940 ft | 444 kts | 268° |
| 2026-05-07 08:39 | 53.51919 | -16.21768 | 33937 ft | 444 kts | 268° |
| 2026-05-07 08:40 | 53.52025 | -16.32154 | 33941 ft | 445 kts | 268° |
| 2026-05-07 08:40 | 53.52105 | -16.40535 | 33939 ft | 445 kts | 268° |
| 2026-05-07 08:41 | 53.52195 | -16.50930 | 33936 ft | 445 kts | 267° |
| 2026-05-07 08:41 | 53.52277 | -16.61309 | 33945 ft | 445 kts | 267° |
| 2026-05-07 08:42 | 53.52349 | -16.71721 | 33956 ft | 449 kts | 267° |
| 2026-05-07 08:42 | 53.52401 | -16.80507 | 33970 ft | 455 kts | 268° |
| 2026-05-07 08:43 | 53.52458 | -16.91204 | 33965 ft | 460 kts | 268° |
| 2026-05-07 08:43 | 53.52508 | -17.01975 | 33956 ft | 461 kts | 267° |
| 2026-05-07 08:44 | 53.52547 | -17.12764 | 33972 ft | 461 kts | 268° |
| 2026-05-07 08:44 | 53.52576 | -17.23537 | 33957 ft | 460 kts | 268° |
| 2026-05-07 08:45 | 53.52596 | -17.34246 | 33965 ft | 458 kts | 268° |
| 2026-05-07 08:45 | 53.52605 | -17.44933 | 33962 ft | 456 kts | 268° |
| 2026-05-07 08:46 | 53.52604 | -17.55589 | 33962 ft | 456 kts | 268° |
| 2026-05-07 08:46 | 53.52595 | -17.66176 | 33965 ft | 456 kts | 268° |
| 2026-05-07 08:47 | 53.52575 | -17.76841 | 33971 ft | 456 kts | 267° |
| 2026-05-07 08:47 | 53.52546 | -17.87528 | 33967 ft | 457 kts | 268° |
| 2026-05-07 08:48 | 53.52508 | -17.98243 | 33975 ft | 459 kts | 268° |
| 2026-05-07 08:48 | 53.52460 | -18.08987 | 33981 ft | 461 kts | 268° |
| 2026-05-07 08:49 | 53.52402 | -18.19776 | 33977 ft | 462 kts | 268° |
| 2026-05-07 08:49 | 53.52335 | -18.30574 | 33977 ft | 462 kts | 267° |
| 2026-05-07 08:50 | 53.52258 | -18.41310 | 33982 ft | 462 kts | 268° |
| 2026-05-07 08:50 | 53.52170 | -18.52128 | 33989 ft | 463 kts | 268° |
| 2026-05-07 08:51 | 53.52073 | -18.62946 | 33986 ft | 463 kts | 267° |
| 2026-05-07 08:51 | 53.51966 | -18.73788 | 33992 ft | 464 kts | 267° |
| 2026-05-07 08:52 | 53.51850 | -18.84621 | 33998 ft | 464 kts | 267° |
| 2026-05-07 08:52 | 53.51723 | -18.95469 | 33991 ft | 464 kts | 267° |
| 2026-05-07 08:53 | 53.51586 | -19.06322 | 33993 ft | 464 kts | 267° |
| 2026-05-07 08:53 | 53.51440 | -19.17170 | 33994 ft | 464 kts | 267° |
| 2026-05-07 08:54 | 53.51285 | -19.27933 | 33994 ft | 464 kts | 267° |
| 2026-05-07 08:54 | 53.51119 | -19.38772 | 34000 ft | 464 kts | 267° |
| 2026-05-07 08:55 | 53.50943 | -19.49625 | 33990 ft | 464 kts | 267° |
| 2026-05-07 08:55 | 53.50758 | -19.60453 | 34001 ft | 464 kts | 267° |
| 2026-05-07 08:56 | 53.50563 | -19.71292 | 34004 ft | 464 kts | 267° |
| 2026-05-07 08:56 | 53.50359 | -19.82122 | 34008 ft | 464 kts | 267° |
| 2026-05-07 08:57 | 53.50145 | -19.92965 | 34009 ft | 464 kts | 267° |
| 2026-05-07 08:57 | 53.49827 | -20.03779 | 34012 ft | 463 kts | 264° |
| 2026-05-07 08:58 | 53.49213 | -20.14493 | 34015 ft | 464 kts | 264° |
| 2026-05-07 08:58 | 53.48559 | -20.25269 | 34019 ft | 464 kts | 264° |
| 2026-05-07 08:59 | 53.47909 | -20.36065 | 34019 ft | 464 kts | 264° |
| 2026-05-07 08:59 | 53.47259 | -20.46863 | 34019 ft | 464 kts | 264° |
| 2026-05-07 09:00 | 53.46604 | -20.57648 | 34011 ft | 464 kts | 264° |
| 2026-05-07 09:00 | 53.45938 | -20.68440 | 34057 ft | 464 kts | 264° |
| 2026-05-07 09:01 | 53.45264 | -20.79210 | 34034 ft | 464 kts | 264° |
| 2026-05-07 09:01 | 53.44580 | -20.89968 | 34027 ft | 463 kts | 263° |
| 2026-05-07 09:02 | 53.43887 | -21.00707 | 34030 ft | 463 kts | 263° |
| 2026-05-07 09:02 | 53.43190 | -21.11369 | 34026 ft | 462 kts | 264° |
| 2026-05-07 09:03 | 53.42479 | -21.22088 | 34033 ft | 462 kts | 263° |
| 2026-05-07 09:03 | 53.41759 | -21.32795 | 34033 ft | 462 kts | 263° |
| 2026-05-07 09:04 | 53.41030 | -21.43496 | 34033 ft | 462 kts | 263° |
| 2026-05-07 09:04 | 53.40291 | -21.54192 | 34036 ft | 462 kts | 263° |
| 2026-05-07 09:05 | 53.39542 | -21.64894 | 34038 ft | 462 kts | 263° |
| 2026-05-07 09:05 | 53.38786 | -21.75545 | 34043 ft | 463 kts | 263° |
| 2026-05-07 09:06 | 53.38018 | -21.86242 | 34044 ft | 463 kts | 263° |
| 2026-05-07 09:06 | 53.37240 | -21.96943 | 34046 ft | 463 kts | 263° |
| 2026-05-07 09:07 | 53.36451 | -22.07644 | 34044 ft | 463 kts | 263° |
| 2026-05-07 09:07 | 53.35653 | -22.18341 | 34042 ft | 463 kts | 263° |
| 2026-05-07 09:08 | 53.34845 | -22.29040 | 34047 ft | 463 kts | 263° |
| 2026-05-07 09:08 | 53.34028 | -22.39738 | 34049 ft | 464 kts | 263° |
| 2026-05-07 09:09 | 53.33205 | -22.50379 | 34052 ft | 464 kts | 263° |
| 2026-05-07 09:09 | 53.32366 | -22.61088 | 34057 ft | 464 kts | 263° |
| 2026-05-07 09:10 | 53.31517 | -22.71803 | 34055 ft | 464 kts | 263° |
| 2026-05-07 09:10 | 53.30658 | -22.82531 | 34064 ft | 465 kts | 263° |
| 2026-05-07 09:11 | 53.29794 | -22.93182 | 34068 ft | 466 kts | 263° |
| 2026-05-07 09:11 | 53.28914 | -23.03925 | 34061 ft | 466 kts | 263° |
| 2026-05-07 09:12 | 53.28023 | -23.14666 | 34059 ft | 467 kts | 263° |
| 2026-05-07 09:12 | 53.27121 | -23.25420 | 34060 ft | 467 kts | 263° |
| 2026-05-07 09:13 | 53.26211 | -23.36158 | 34069 ft | 467 kts | 263° |
| 2026-05-07 09:13 | 53.25287 | -23.46930 | 34071 ft | 468 kts | 263° |
| 2026-05-07 09:14 | 53.24362 | -23.57605 | 34071 ft | 468 kts | 263° |
| 2026-05-07 09:14 | 53.23421 | -23.68351 | 34051 ft | 468 kts | 263° |
| 2026-05-07 09:15 | 53.22468 | -23.79107 | 34070 ft | 468 kts | 264° |
| 2026-05-07 09:15 | 53.21507 | -23.89857 | 34078 ft | 468 kts | 263° |
| 2026-05-07 09:16 | 53.20534 | -24.00610 | 34076 ft | 469 kts | 263° |
| 2026-05-07 09:16 | 53.19551 | -24.11376 | 34073 ft | 469 kts | 263° |
| 2026-05-07 09:17 | 53.18558 | -24.22130 | 34060 ft | 469 kts | 264° |
| 2026-05-07 09:17 | 53.17555 | -24.32881 | 34078 ft | 470 kts | 264° |
| 2026-05-07 09:18 | 53.16541 | -24.43651 | 34090 ft | 470 kts | 264° |
| 2026-05-07 09:18 | 53.15517 | -24.54415 | 34086 ft | 471 kts | 264° |
| 2026-05-07 09:19 | 53.14488 | -24.65128 | 34089 ft | 471 kts | 264° |
| 2026-05-07 09:19 | 53.13442 | -24.75902 | 34085 ft | 471 kts | 264° |
| 2026-05-07 09:20 | 53.12389 | -24.86654 | 34092 ft | 471 kts | 264° |
| 2026-05-07 09:20 | 53.11324 | -24.97417 | 34093 ft | 471 kts | 264° |
| 2026-05-07 09:21 | 53.10250 | -25.08173 | 34113 ft | 471 kts | 264° |
| 2026-05-07 09:21 | 53.09172 | -25.18863 | 34103 ft | 471 kts | 264° |
| 2026-05-07 09:22 | 53.08078 | -25.29606 | 34095 ft | 470 kts | 265° |
| 2026-05-07 09:22 | 53.06977 | -25.40330 | 34100 ft | 470 kts | 265° |
| 2026-05-07 09:23 | 53.05866 | -25.51045 | 34107 ft | 470 kts | 265° |
| 2026-05-07 09:23 | 53.04745 | -25.61761 | 34103 ft | 470 kts | 264° |
| 2026-05-07 09:24 | 53.03614 | -25.72471 | 34106 ft | 470 kts | 264° |
| 2026-05-07 09:24 | 53.02473 | -25.83173 | 34104 ft | 470 kts | 265° |
| 2026-05-07 09:25 | 53.01325 | -25.93857 | 34115 ft | 470 kts | 265° |
| 2026-05-07 09:25 | 53.00174 | -26.04473 | 34117 ft | 470 kts | 265° |
| 2026-05-07 09:26 | 52.99005 | -26.15156 | 34117 ft | 470 kts | 265° |
| 2026-05-07 09:26 | 52.97826 | -26.25843 | 34078 ft | 470 kts | 266° |
| 2026-05-07 09:27 | 52.96637 | -26.36511 | 34101 ft | 470 kts | 266° |
| 2026-05-07 09:28 | 52.94842 | -26.52476 | 34116 ft | 469 kts | 265° |
| 2026-05-07 09:28 | 52.93633 | -26.63111 | 34121 ft | 469 kts | 265° |
| 2026-05-07 09:29 | 52.92413 | -26.73751 | 34128 ft | 469 kts | 265° |
| 2026-05-07 09:29 | 52.91184 | -26.84382 | 34130 ft | 469 kts | 265° |
| 2026-05-07 09:30 | 52.89955 | -26.94931 | 34132 ft | 469 kts | 265° |
| 2026-05-07 09:30 | 52.88706 | -27.05553 | 34132 ft | 469 kts | 265° |
| 2026-05-07 09:31 | 52.87449 | -27.16159 | 34130 ft | 469 kts | 265° |
| 2026-05-07 09:31 | 52.86182 | -27.26771 | 34095 ft | 469 kts | 266° |
| 2026-05-07 09:32 | 52.84908 | -27.37346 | 34127 ft | 468 kts | 266° |
| 2026-05-07 09:32 | 52.83634 | -27.47846 | 34142 ft | 468 kts | 266° |
| 2026-05-07 09:33 | 52.82344 | -27.58403 | 34135 ft | 469 kts | 265° |
| 2026-05-07 09:33 | 52.81263 | -27.67176 | 34148 ft | 469 kts | 265° |
| 2026-05-07 09:34 | 52.79953 | -27.77729 | 34111 ft | 468 kts | 266° |
| 2026-05-07 09:34 | 52.78636 | -27.88264 | 34143 ft | 468 kts | 266° |
| 2026-05-07 09:35 | 52.77307 | -27.98808 | 34155 ft | 469 kts | 266° |
| 2026-05-07 09:35 | 52.75969 | -28.09350 | 34153 ft | 469 kts | 266° |
| 2026-05-07 09:36 | 52.74622 | -28.19884 | 34152 ft | 469 kts | 266° |
| 2026-05-07 09:36 | 52.73263 | -28.30425 | 34141 ft | 469 kts | 266° |
| 2026-05-07 09:37 | 52.71895 | -28.40961 | 34144 ft | 470 kts | 266° |
| 2026-05-07 09:37 | 52.70517 | -28.51495 | 34159 ft | 471 kts | 266° |
| 2026-05-07 09:38 | 52.69125 | -28.62058 | 34159 ft | 471 kts | 266° |
| 2026-05-07 09:38 | 52.67722 | -28.72622 | 34155 ft | 472 kts | 265° |
| 2026-05-07 09:39 | 52.66320 | -28.83105 | 34147 ft | 472 kts | 266° |
| 2026-05-07 09:39 | 52.64896 | -28.93677 | 34159 ft | 472 kts | 265° |
| 2026-05-07 09:40 | 52.63460 | -29.04264 | 34166 ft | 473 kts | 265° |
| 2026-05-07 09:40 | 52.62016 | -29.14829 | 34163 ft | 473 kts | 265° |
| 2026-05-07 09:41 | 52.60562 | -29.25387 | 34110 ft | 473 kts | 265° |
| 2026-05-07 09:41 | 52.59099 | -29.35947 | 34156 ft | 474 kts | 265° |
| 2026-05-07 09:42 | 52.57621 | -29.46535 | 34167 ft | 475 kts | 265° |
| 2026-05-07 09:42 | 52.56139 | -29.57081 | 34169 ft | 477 kts | 265° |
| 2026-05-07 09:43 | 52.54635 | -29.67703 | 34173 ft | 477 kts | 265° |
| 2026-05-07 09:43 | 52.53122 | -29.78316 | 34160 ft | 477 kts | 264° |
| 2026-05-07 09:44 | 52.51607 | -29.88876 | 34172 ft | 478 kts | 264° |
| 2026-05-07 09:44 | 52.50077 | -29.99509 | 34177 ft | 479 kts | 265° |
| 2026-05-07 09:45 | 52.48882 | -30.10192 | 34182 ft | 475 kts | 268° |
| 2026-05-07 09:45 | 52.47784 | -30.20901 | 34183 ft | 476 kts | 268° |
| 2026-05-07 09:46 | 52.46672 | -30.31602 | 34183 ft | 476 kts | 268° |
| 2026-05-07 09:46 | 52.45534 | -30.42312 | 34184 ft | 477 kts | 268° |
| 2026-05-07 09:47 | 52.44378 | -30.53040 | 34180 ft | 478 kts | 267° |
| 2026-05-07 09:47 | 52.43210 | -30.63765 | 34183 ft | 478 kts | 267° |
| 2026-05-07 09:48 | 52.42032 | -30.74492 | 34147 ft | 478 kts | 267° |
| 2026-05-07 09:48 | 52.40851 | -30.85145 | 34188 ft | 478 kts | 267° |
| 2026-05-07 09:49 | 52.39656 | -30.95856 | 34194 ft | 478 kts | 267° |
| 2026-05-07 09:49 | 52.38450 | -31.06565 | 34197 ft | 479 kts | 267° |
| 2026-05-07 09:50 | 52.37234 | -31.17259 | 34196 ft | 477 kts | 267° |
| 2026-05-07 09:50 | 52.36012 | -31.27923 | 34158 ft | 476 kts | 267° |
| 2026-05-07 09:51 | 52.34782 | -31.38557 | 34191 ft | 475 kts | 267° |
| 2026-05-07 09:51 | 52.33545 | -31.49185 | 34200 ft | 475 kts | 267° |
| 2026-05-07 09:52 | 52.32307 | -31.59733 | 34202 ft | 475 kts | 267° |
| 2026-05-07 09:52 | 52.31050 | -31.70347 | 34202 ft | 476 kts | 266° |
| 2026-05-07 09:53 | 52.29783 | -31.80966 | 34201 ft | 476 kts | 266° |
| 2026-05-07 09:53 | 52.28505 | -31.91586 | 34202 ft | 476 kts | 266° |
| 2026-05-07 09:54 | 52.27216 | -32.02204 | 34204 ft | 477 kts | 266° |
| 2026-05-07 09:54 | 52.25917 | -32.12824 | 34208 ft | 477 kts | 266° |
| 2026-05-07 09:55 | 52.24611 | -32.23426 | 34207 ft | 477 kts | 266° |
| 2026-05-07 09:55 | 52.23294 | -32.34024 | 34210 ft | 477 kts | 266° |
| 2026-05-07 09:56 | 52.21977 | -32.44547 | 34209 ft | 477 kts | 266° |
| 2026-05-07 09:56 | 52.20639 | -32.55161 | 34203 ft | 478 kts | 266° |
| 2026-05-07 09:57 | 52.19290 | -32.65769 | 34209 ft | 478 kts | 266° |
| 2026-05-07 09:57 | 52.17934 | -32.76350 | 34167 ft | 477 kts | 265° |
| 2026-05-07 09:58 | 52.16571 | -32.86905 | 34207 ft | 476 kts | 265° |
| 2026-05-07 09:58 | 52.15200 | -32.97445 | 34218 ft | 475 kts | 265° |
| 2026-05-07 09:59 | 52.13823 | -33.07961 | 34222 ft | 475 kts | 265° |
| 2026-05-07 09:59 | 52.12434 | -33.18489 | 34220 ft | 476 kts | 265° |
| 2026-05-07 10:00 | 52.11035 | -33.29011 | 34197 ft | 476 kts | 265° |
| 2026-05-07 10:00 | 52.09624 | -33.39549 | 34222 ft | 477 kts | 265° |
| 2026-05-07 10:01 | 52.08201 | -33.50103 | 34233 ft | 478 kts | 265° |
| 2026-05-07 10:01 | 52.06774 | -33.60604 | 34231 ft | 479 kts | 265° |
| 2026-05-07 10:02 | 52.05325 | -33.71189 | 34227 ft | 480 kts | 264° |
| 2026-05-07 10:02 | 52.03867 | -33.81758 | 34226 ft | 480 kts | 264° |
| 2026-05-07 10:03 | 52.02399 | -33.92335 | 34236 ft | 480 kts | 264° |
| 2026-05-07 10:03 | 52.00919 | -34.02918 | 34240 ft | 480 kts | 264° |
| 2026-05-07 10:04 | 51.99431 | -34.13488 | 34237 ft | 481 kts | 264° |
| 2026-05-07 10:04 | 51.97931 | -34.24060 | 34238 ft | 480 kts | 264° |
| 2026-05-07 10:05 | 51.96428 | -34.34579 | 34237 ft | 478 kts | 264° |
| 2026-05-07 10:05 | 51.94918 | -34.45083 | 34244 ft | 477 kts | 264° |
| 2026-05-07 10:06 | 51.93402 | -34.55555 | 34248 ft | 477 kts | 264° |
| 2026-05-07 10:06 | 51.91887 | -34.65954 | 34250 ft | 477 kts | 264° |
| 2026-05-07 10:07 | 51.90353 | -34.76415 | 34219 ft | 477 kts | 263° |
| 2026-05-07 10:07 | 51.88809 | -34.86866 | 34250 ft | 478 kts | 263° |
| 2026-05-07 10:08 | 51.87251 | -34.97348 | 34255 ft | 479 kts | 263° |
| 2026-05-07 10:08 | 51.85681 | -35.07836 | 34254 ft | 480 kts | 263° |
| 2026-05-07 10:09 | 51.84101 | -35.18322 | 34257 ft | 480 kts | 263° |
| 2026-05-07 10:09 | 51.82508 | -35.28816 | 34245 ft | 480 kts | 263° |
| 2026-05-07 10:10 | 51.80909 | -35.39283 | 34248 ft | 479 kts | 263° |
| 2026-05-07 10:10 | 51.79313 | -35.49671 | 34257 ft | 479 kts | 263° |
| 2026-05-07 10:11 | 51.77698 | -35.60113 | 34261 ft | 479 kts | 263° |
| 2026-05-07 10:11 | 51.76075 | -35.70543 | 34259 ft | 478 kts | 263° |
| 2026-05-07 10:12 | 51.74444 | -35.80945 | 34261 ft | 477 kts | 263° |
| 2026-05-07 10:12 | 51.72809 | -35.91320 | 34266 ft | 477 kts | 263° |
| 2026-05-07 10:13 | 51.71163 | -36.01698 | 34267 ft | 478 kts | 263° |
| 2026-05-07 10:13 | 51.69504 | -36.12091 | 34266 ft | 478 kts | 263° |
| 2026-05-07 10:14 | 51.67836 | -36.22474 | 34237 ft | 479 kts | 263° |
| 2026-05-07 10:14 | 51.66167 | -36.32805 | 34268 ft | 481 kts | 263° |
| 2026-05-07 10:15 | 51.64471 | -36.43236 | 34277 ft | 483 kts | 263° |
| 2026-05-07 10:15 | 51.62758 | -36.53707 | 34273 ft | 484 kts | 263° |
| 2026-05-07 10:16 | 51.61032 | -36.64185 | 34272 ft | 485 kts | 262° |
| 2026-05-07 10:16 | 51.59295 | -36.74661 | 34271 ft | 485 kts | 262° |
| 2026-05-07 10:17 | 51.57548 | -36.85134 | 34271 ft | 484 kts | 262° |
| 2026-05-07 10:17 | 51.55797 | -36.95572 | 34279 ft | 484 kts | 262° |
| 2026-05-07 10:18 | 51.54036 | -37.06008 | 34277 ft | 483 kts | 262° |
| 2026-05-07 10:18 | 51.52268 | -37.16421 | 34241 ft | 483 kts | 262° |
| 2026-05-07 10:19 | 51.50493 | -37.26817 | 34273 ft | 483 kts | 262° |
| 2026-05-07 10:19 | 51.48705 | -37.37233 | 34293 ft | 484 kts | 262° |
| 2026-05-07 10:20 | 51.46904 | -37.47656 | 34293 ft | 485 kts | 262° |
| 2026-05-07 10:20 | 51.45090 | -37.58089 | 34273 ft | 486 kts | 262° |
| 2026-05-07 10:21 | 51.43275 | -37.68465 | 34272 ft | 486 kts | 261° |
| 2026-05-07 10:21 | 51.41441 | -37.78892 | 34276 ft | 486 kts | 261° |
| 2026-05-07 10:22 | 51.39897 | -37.87625 | 34272 ft | 486 kts | 261° |
| 2026-05-07 10:22 | 51.38057 | -37.97973 | 34277 ft | 486 kts | 261° |
| 2026-05-07 10:23 | 51.36197 | -38.08377 | 34271 ft | 486 kts | 261° |
| 2026-05-07 10:23 | 51.34328 | -38.18770 | 34272 ft | 486 kts | 261° |
| 2026-05-07 10:24 | 51.32449 | -38.29157 | 34279 ft | 486 kts | 260° |
| 2026-05-07 10:24 | 51.30559 | -38.39547 | 34281 ft | 487 kts | 260° |
| 2026-05-07 10:25 | 51.28658 | -38.49942 | 34278 ft | 488 kts | 260° |
| 2026-05-07 10:25 | 51.26758 | -38.60267 | 34258 ft | 488 kts | 260° |
| 2026-05-07 10:26 | 51.24834 | -38.70669 | 34274 ft | 488 kts | 259° |
| 2026-05-07 10:26 | 51.22900 | -38.81067 | 34282 ft | 489 kts | 259° |
| 2026-05-07 10:27 | 51.20950 | -38.91487 | 34283 ft | 490 kts | 259° |
| 2026-05-07 10:27 | 51.18990 | -39.01906 | 34283 ft | 490 kts | 259° |
| 2026-05-07 10:28 | 51.17022 | -39.12308 | 34277 ft | 490 kts | 259° |
| 2026-05-07 10:28 | 51.15044 | -39.22706 | 34284 ft | 491 kts | 259° |
| 2026-05-07 10:29 | 51.13054 | -39.33107 | 34283 ft | 491 kts | 259° |
| 2026-05-07 10:29 | 51.11053 | -39.43510 | 34280 ft | 491 kts | 259° |
| 2026-05-07 10:30 | 51.08045 | -39.59049 | 34276 ft | 491 kts | 258° |
| 2026-05-07 10:30 | 51.06019 | -39.69443 | 34279 ft | 492 kts | 258° |
| 2026-05-07 10:31 | 51.03984 | -39.79825 | 34273 ft | 493 kts | 258° |
| 2026-05-07 10:31 | 51.01935 | -39.90230 | 34274 ft | 493 kts | 258° |
| 2026-05-07 10:32 | 50.99945 | -40.00643 | 34268 ft | 490 kts | 262° |
| 2026-05-07 10:32 | 50.98746 | -40.11221 | 34273 ft | 486 kts | 266° |
| 2026-05-07 10:33 | 50.97688 | -40.21806 | 34273 ft | 486 kts | 266° |
| 2026-05-07 10:33 | 50.96599 | -40.32387 | 34272 ft | 486 kts | 265° |
| 2026-05-07 10:34 | 50.95476 | -40.42973 | 34272 ft | 486 kts | 265° |
| 2026-05-07 10:34 | 50.94337 | -40.53539 | 34258 ft | 486 kts | 265° |
| 2026-05-07 10:35 | 50.93196 | -40.64028 | 34264 ft | 485 kts | 265° |
| 2026-05-07 10:35 | 50.92040 | -40.74576 | 34267 ft | 485 kts | 265° |
| 2026-05-07 10:36 | 50.90875 | -40.85121 | 34265 ft | 485 kts | 265° |
| 2026-05-07 10:36 | 50.89701 | -40.95655 | 34263 ft | 485 kts | 265° |
| 2026-05-07 10:37 | 50.88524 | -41.06129 | 34241 ft | 484 kts | 264° |
| 2026-05-07 10:37 | 50.87336 | -41.16603 | 34253 ft | 483 kts | 264° |
| 2026-05-07 10:38 | 50.86139 | -41.27068 | 34265 ft | 482 kts | 263° |
| 2026-05-07 10:38 | 50.84936 | -41.37507 | 34256 ft | 482 kts | 263° |
| 2026-05-07 10:39 | 50.83725 | -41.47930 | 34250 ft | 482 kts | 263° |
| 2026-05-07 10:39 | 50.82504 | -41.58353 | 34250 ft | 482 kts | 263° |
| 2026-05-07 10:40 | 50.81281 | -41.68706 | 34252 ft | 482 kts | 263° |
| 2026-05-07 10:40 | 50.80040 | -41.79134 | 34251 ft | 482 kts | 263° |
| 2026-05-07 10:41 | 50.78788 | -41.89561 | 34248 ft | 482 kts | 263° |
| 2026-05-07 10:41 | 50.77528 | -41.99979 | 34258 ft | 483 kts | 263° |
| 2026-05-07 10:42 | 50.76257 | -42.10407 | 34251 ft | 483 kts | 263° |
| 2026-05-07 10:42 | 50.74973 | -42.20853 | 34256 ft | 485 kts | 263° |
| 2026-05-07 10:43 | 50.73686 | -42.31251 | 34251 ft | 486 kts | 262° |
| 2026-05-07 10:43 | 50.72380 | -42.41708 | 34251 ft | 486 kts | 262° |
| 2026-05-07 10:44 | 50.71062 | -42.52190 | 34252 ft | 487 kts | 262° |
| 2026-05-07 10:44 | 50.69733 | -42.62673 | 34248 ft | 487 kts | 262° |
| 2026-05-07 10:45 | 50.68396 | -42.73137 | 34252 ft | 487 kts | 262° |
| 2026-05-07 10:45 | 50.67049 | -42.83608 | 34250 ft | 487 kts | 262° |
| 2026-05-07 10:46 | 50.65692 | -42.94073 | 34253 ft | 487 kts | 262° |
| 2026-05-07 10:46 | 50.64328 | -43.04513 | 34249 ft | 486 kts | 262° |
| 2026-05-07 10:47 | 50.62966 | -43.14858 | 34246 ft | 485 kts | 261° |
| 2026-05-07 10:47 | 50.61586 | -43.25272 | 34251 ft | 485 kts | 261° |
| 2026-05-07 10:48 | 50.60197 | -43.35675 | 34250 ft | 485 kts | 261° |
| 2026-05-07 10:48 | 50.58800 | -43.46066 | 34251 ft | 486 kts | 261° |
| 2026-05-07 10:49 | 50.57392 | -43.56463 | 34248 ft | 486 kts | 261° |
| 2026-05-07 10:49 | 50.55981 | -43.66802 | 34247 ft | 487 kts | 261° |
| 2026-05-07 10:50 | 50.54552 | -43.77208 | 34249 ft | 487 kts | 261° |
| 2026-05-07 10:50 | 50.53109 | -43.87635 | 34248 ft | 488 kts | 261° |
| 2026-05-07 10:51 | 50.51656 | -43.98061 | 34253 ft | 487 kts | 261° |
| 2026-05-07 10:51 | 50.50198 | -44.08440 | 34231 ft | 485 kts | 261° |
| 2026-05-07 10:52 | 50.48736 | -44.18788 | 34240 ft | 484 kts | 261° |
| 2026-05-07 10:52 | 50.47268 | -44.29103 | 34245 ft | 483 kts | 260° |
| 2026-05-07 10:53 | 50.45803 | -44.39330 | 34247 ft | 483 kts | 260° |
| 2026-05-07 10:53 | 50.44319 | -44.49625 | 34245 ft | 483 kts | 260° |
| 2026-05-07 10:54 | 50.42824 | -44.59920 | 34235 ft | 484 kts | 260° |
| 2026-05-07 10:54 | 50.41320 | -44.70216 | 34249 ft | 485 kts | 260° |
| 2026-05-07 10:55 | 50.39803 | -44.80526 | 34248 ft | 486 kts | 260° |
| 2026-05-07 10:55 | 50.38275 | -44.90842 | 34256 ft | 485 kts | 259° |
| 2026-05-07 10:56 | 50.36751 | -45.01053 | 34243 ft | 483 kts | 259° |
| 2026-05-07 10:56 | 50.35217 | -45.11274 | 34235 ft | 481 kts | 259° |
| 2026-05-07 10:57 | 50.33678 | -45.21464 | 34247 ft | 480 kts | 259° |
| 2026-05-07 10:57 | 50.32132 | -45.31634 | 34245 ft | 480 kts | 259° |
| 2026-05-07 10:58 | 50.30586 | -45.41741 | 34248 ft | 480 kts | 259° |
| 2026-05-07 10:58 | 50.29022 | -45.51906 | 34251 ft | 481 kts | 259° |
| 2026-05-07 10:59 | 50.27447 | -45.62073 | 34236 ft | 482 kts | 259° |
| 2026-05-07 10:59 | 50.25859 | -45.72260 | 34251 ft | 482 kts | 259° |
| 2026-05-07 11:00 | 50.24260 | -45.82455 | 34259 ft | 482 kts | 258° |
| 2026-05-07 11:00 | 50.22656 | -45.92607 | 34246 ft | 481 kts | 258° |
| 2026-05-07 11:01 | 50.21059 | -46.02656 | 34248 ft | 479 kts | 258° |
| 2026-05-07 11:01 | 50.19447 | -46.12745 | 34243 ft | 478 kts | 258° |
| 2026-05-07 11:02 | 50.17829 | -46.22809 | 34253 ft | 477 kts | 258° |
| 2026-05-07 11:02 | 50.16205 | -46.32850 | 34252 ft | 478 kts | 258° |
| 2026-05-07 11:03 | 50.14570 | -46.42899 | 34248 ft | 478 kts | 258° |
| 2026-05-07 11:03 | 50.12926 | -46.52947 | 34250 ft | 479 kts | 258° |
| 2026-05-07 11:04 | 50.11270 | -46.62999 | 34249 ft | 479 kts | 258° |
| 2026-05-07 11:04 | 50.09606 | -46.73049 | 34258 ft | 479 kts | 257° |
| 2026-05-07 11:05 | 50.07933 | -46.83087 | 34250 ft | 478 kts | 257° |
| 2026-05-07 11:05 | 50.06267 | -46.93024 | 34253 ft | 477 kts | 257° |
| 2026-05-07 11:06 | 50.04587 | -47.02990 | 34254 ft | 476 kts | 257° |
| 2026-05-07 11:06 | 50.02897 | -47.12957 | 34253 ft | 476 kts | 257° |
| 2026-05-07 11:07 | 50.01200 | -47.22910 | 34259 ft | 476 kts | 257° |
| 2026-05-07 11:07 | 49.99492 | -47.32871 | 34255 ft | 477 kts | 257° |
| 2026-05-07 11:08 | 49.97774 | -47.42829 | 34258 ft | 477 kts | 257° |
| 2026-05-07 11:08 | 49.96046 | -47.52793 | 34256 ft | 478 kts | 256° |
| 2026-05-07 11:09 | 49.94305 | -47.62774 | 34258 ft | 479 kts | 256° |
| 2026-05-07 11:09 | 49.92556 | -47.72742 | 34261 ft | 479 kts | 256° |
| 2026-05-07 11:10 | 49.90808 | -47.82649 | 34252 ft | 479 kts | 256° |
| 2026-05-07 11:10 | 49.89043 | -47.92600 | 34247 ft | 478 kts | 256° |
| 2026-05-07 11:11 | 49.87269 | -48.02541 | 34249 ft | 477 kts | 256° |
| 2026-05-07 11:11 | 49.85491 | -48.12456 | 34251 ft | 477 kts | 255° |
| 2026-05-07 11:12 | 49.84007 | -48.20691 | 34252 ft | 478 kts | 255° |
| 2026-05-07 11:12 | 49.81916 | -48.32225 | 34250 ft | 478 kts | 255° |
| 2026-05-07 11:13 | 49.80110 | -48.42133 | 34250 ft | 478 kts | 255° |
| 2026-05-07 11:13 | 49.78599 | -48.50381 | 34250 ft | 479 kts | 255° |
| 2026-05-07 11:14 | 49.76775 | -48.60288 | 34251 ft | 479 kts | 255° |
| 2026-05-07 11:14 | 49.74944 | -48.70177 | 34249 ft | 478 kts | 254° |
| 2026-05-07 11:15 | 49.73107 | -48.80046 | 34251 ft | 478 kts | 254° |
| 2026-05-07 11:15 | 49.71260 | -48.89919 | 34244 ft | 477 kts | 254° |
| 2026-05-07 11:16 | 49.69408 | -48.99765 | 34238 ft | 477 kts | 254° |
| 2026-05-07 11:16 | 49.67546 | -49.09613 | 34245 ft | 477 kts | 254° |
| 2026-05-07 11:17 | 49.65676 | -49.19451 | 34249 ft | 477 kts | 254° |
| 2026-05-07 11:17 | 49.63799 | -49.29271 | 34239 ft | 477 kts | 254° |
| 2026-05-07 11:18 | 49.61914 | -49.39088 | 34245 ft | 477 kts | 254° |
| 2026-05-07 11:18 | 49.60021 | -49.48898 | 34246 ft | 476 kts | 253° |
| 2026-05-07 11:19 | 49.58129 | -49.58644 | 34241 ft | 473 kts | 253° |
| 2026-05-07 11:19 | 49.56249 | -49.68285 | 34235 ft | 471 kts | 253° |
| 2026-05-07 11:20 | 49.54359 | -49.77930 | 34239 ft | 469 kts | 253° |
| 2026-05-07 11:20 | 49.52466 | -49.87546 | 34239 ft | 469 kts | 253° |
| 2026-05-07 11:21 | 49.50560 | -49.97179 | 34234 ft | 470 kts | 252° |
| 2026-05-07 11:21 | 49.48452 | -50.06685 | 34237 ft | 470 kts | 250° |
| 2026-05-07 11:22 | 49.46166 | -50.16100 | 34239 ft | 470 kts | 249° |
| 2026-05-07 11:22 | 49.43868 | -50.25520 | 34237 ft | 471 kts | 249° |
| 2026-05-07 11:23 | 49.41573 | -50.34959 | 34249 ft | 471 kts | 249° |
| 2026-05-07 11:23 | 49.39301 | -50.44302 | 34233 ft | 469 kts | 249° |
| 2026-05-07 11:24 | 49.37014 | -50.53665 | 34232 ft | 467 kts | 248° |
| 2026-05-07 11:24 | 49.34729 | -50.62982 | 34233 ft | 466 kts | 248° |
| 2026-05-07 11:25 | 49.32443 | -50.72262 | 34237 ft | 465 kts | 248° |
| 2026-05-07 11:25 | 49.30150 | -50.81532 | 34234 ft | 465 kts | 248° |
| 2026-05-07 11:26 | 49.27850 | -50.90789 | 34232 ft | 465 kts | 248° |
| 2026-05-07 11:26 | 49.25539 | -51.00053 | 34232 ft | 466 kts | 248° |
| 2026-05-07 11:27 | 49.23216 | -51.09329 | 34230 ft | 466 kts | 248° |
| 2026-05-07 11:27 | 49.20887 | -51.18587 | 34227 ft | 467 kts | 248° |
| 2026-05-07 11:28 | 49.18563 | -51.27792 | 34226 ft | 467 kts | 248° |
| 2026-05-07 11:28 | 49.16215 | -51.37050 | 34226 ft | 467 kts | 248° |
| 2026-05-07 11:29 | 49.13860 | -51.46301 | 34226 ft | 467 kts | 248° |
| 2026-05-07 11:29 | 49.11498 | -51.55537 | 34220 ft | 467 kts | 248° |
| 2026-05-07 11:30 | 49.09131 | -51.64761 | 34220 ft | 467 kts | 248° |
| 2026-05-07 11:30 | 49.06755 | -51.73979 | 34217 ft | 466 kts | 247° |
| 2026-05-07 11:31 | 49.04373 | -51.83186 | 34219 ft | 466 kts | 247° |
| 2026-05-07 11:31 | 49.01988 | -51.92373 | 34218 ft | 466 kts | 247° |
| 2026-05-07 11:32 | 48.98379 | -52.06133 | 34219 ft | 466 kts | 246° |
| 2026-05-07 11:33 | 48.95942 | -52.15220 | 34220 ft | 466 kts | 246° |
| 2026-05-07 11:33 | 48.93484 | -52.24343 | 34229 ft | 466 kts | 246° |
| 2026-05-07 11:34 | 48.91028 | -52.33444 | 34213 ft | 464 kts | 246° |
| 2026-05-07 11:34 | 48.88578 | -52.42497 | 34210 ft | 462 kts | 246° |
| 2026-05-07 11:35 | 48.86126 | -52.51527 | 34212 ft | 461 kts | 245° |
| 2026-05-07 11:35 | 48.83675 | -52.60518 | 34211 ft | 460 kts | 245° |
| 2026-05-07 11:36 | 48.81226 | -52.69467 | 34199 ft | 459 kts | 245° |
| 2026-05-07 11:36 | 48.78786 | -52.78349 | 34199 ft | 459 kts | 245° |
| 2026-05-07 11:37 | 48.76323 | -52.87278 | 34199 ft | 459 kts | 245° |
| 2026-05-07 11:37 | 48.73851 | -52.96209 | 34194 ft | 460 kts | 245° |
| 2026-05-07 11:38 | 48.71366 | -53.05153 | 34188 ft | 460 kts | 245° |
| 2026-05-07 11:38 | 48.68872 | -53.14097 | 34185 ft | 461 kts | 245° |
| 2026-05-07 11:39 | 48.66385 | -53.22980 | 34212 ft | 461 kts | 245° |
| 2026-05-07 11:39 | 48.63884 | -53.31882 | 34189 ft | 459 kts | 244° |
| 2026-05-07 11:40 | 48.61386 | -53.40739 | 34178 ft | 456 kts | 244° |
| 2026-05-07 11:40 | 48.58899 | -53.49525 | 34165 ft | 454 kts | 244° |
| 2026-05-07 11:41 | 48.56417 | -53.58261 | 34163 ft | 452 kts | 244° |
| 2026-05-07 11:41 | 48.53936 | -53.66963 | 34173 ft | 451 kts | 244° |
| 2026-05-07 11:42 | 48.51442 | -53.75675 | 34172 ft | 451 kts | 244° |